Time;durP1;ratioP1;P1;durP2;ratioP2;P2;SDS_P1;SDS_P2;PMS_P1;PMS_P2;Temp;Humidity;BMP_temperature;BMP_pressure;BME280_temperature;BME280_humidity;BME280_pressure;Samples;Min_cycle;Max_cycle;Signal;HPM_P1;HPM_P2
2022/12/02 00:01:27;;;;;;;9.20;4.17;;;;;;;-4.89;100.00;101836.22;1664063;85;21313;-66
2022/12/02 00:03:55;;;;;;;8.68;4.15;;;;;;;-4.88;100.00;101835.80;1639199;87;20950;-63
2022/12/02 00:06:31;;;;;;;8.33;3.98;;;;;;;-4.90;100.00;101835.83;1640084;87;21162;-66
2022/12/02 00:09:21;;;;;;;8.53;3.60;;;;;;;-4.89;100.00;101838.76;1640618;87;21105;-62
2022/12/02 00:11:49;;;;;;;9.85;3.52;;;;;;;-4.91;100.00;101845.62;1640605;86;21149;-63
2022/12/02 00:14:24;;;;;;;8.73;3.37;;;;;;;-4.90;100.00;101853.63;1640005;87;21824;-62
2022/12/02 00:16:51;;;;;;;6.90;3.15;;;;;;;-4.90;100.00;101856.17;1662361;84;21567;-67
2022/12/02 00:19:18;;;;;;;7.67;3.25;;;;;;;-4.90;100.00;101851.09;1666478;84;21614;-64
2022/12/02 00:21:46;;;;;;;10.45;4.03;;;;;;;-4.87;100.00;101850.18;1668613;85;20923;-63
2022/12/02 00:24:13;;;;;;;7.25;3.35;;;;;;;-4.87;100.00;101849.73;1666196;85;20992;-63
2022/12/02 00:26:40;;;;;;;6.60;2.98;;;;;;;-4.86;100.00;101846.75;1668746;85;21516;-63
2022/12/02 00:29:08;;;;;;;9.43;4.00;;;;;;;-4.86;100.00;101840.39;1680310;84;20999;-63
2022/12/02 00:31:35;;;;;;;7.60;3.20;;;;;;;-4.85;100.00;101848.41;1670117;85;21657;-63
2022/12/02 00:34:02;;;;;;;9.68;3.75;;;;;;;-4.84;100.00;101850.09;1669568;85;21572;-67
2022/12/02 00:36:31;;;;;;;10.05;4.60;;;;;;;-4.85;100.00;101840.33;1670175;85;22291;-64
2022/12/02 00:38:58;;;;;;;9.18;4.55;;;;;;;-4.83;100.00;101846.22;1670028;85;21235;-63
2022/12/02 00:41:26;;;;;;;8.65;3.92;;;;;;;-4.83;100.00;101843.68;1666888;86;21506;-63
2022/12/02 00:46:39;;;;;;;7.42;3.52;;;;;;;-4.77;100.00;101851.14;1678930;84;21141;-61
2022/12/02 00:49:13;;;;;;;9.08;3.92;;;;;;;-4.76;100.00;101860.87;1702998;82;21082;-62
2022/12/02 00:51:41;;;;;;;6.40;2.30;;;;;;;-4.76;100.00;101862.97;1703463;84;21211;-62
2022/12/02 00:54:09;;;;;;;10.58;3.80;;;;;;;-4.74;100.00;101862.91;1703563;82;21018;-62
2022/12/02 00:56:36;;;;;;;7.40;3.00;;;;;;;-4.73;100.00;101842.98;1703737;84;21029;-62
2022/12/02 00:59:03;;;;;;;9.08;3.83;;;;;;;-4.71;100.00;101847.56;1703238;84;20955;-65
2022/12/02 01:01:31;;;;;;;9.78;3.17;;;;;;;-4.70;100.00;101841.59;1703077;82;21667;-66
2022/12/02 01:03:58;;;;;;;7.92;3.27;;;;;;;-4.71;100.00;101850.94;1703594;83;21156;-62
2022/12/02 01:06:26;;;;;;;9.80;4.05;;;;;;;-4.69;100.00;101841.56;1703614;82;21544;-62
2022/12/02 01:08:54;;;;;;;6.17;2.92;;;;;;;-4.67;100.00;101854.23;1703785;82;21493;-62
2022/12/02 01:11:22;;;;;;;7.97;2.92;;;;;;;-4.65;100.00;101855.86;1703186;82;21014;-68
2022/12/02 01:13:50;;;;;;;7.00;3.95;;;;;;;-4.66;100.00;101830.02;1703510;84;21070;-63
2022/12/02 01:16:17;;;;;;;7.40;3.27;;;;;;;-4.63;100.00;101839.70;1703915;84;21256;-63
2022/12/02 01:18:45;;;;;;;7.47;3.22;;;;;;;-4.62;100.00;101833.72;1703751;84;21528;-63
2022/12/02 01:21:12;;;;;;;7.70;4.10;;;;;;;-4.63;100.00;101824.44;1703401;82;21138;-67
2022/12/02 01:23:39;;;;;;;8.45;3.25;;;;;;;-4.62;100.00;101833.72;1702554;82;20923;-63
2022/12/02 01:26:06;;;;;;;7.55;3.40;;;;;;;-4.62;100.00;101854.94;1703645;82;21157;-63
2022/12/02 01:28:34;;;;;;;6.67;3.20;;;;;;;-4.60;100.00;101834.52;1703797;84;21941;-62
2022/12/02 01:31:01;;;;;;;7.60;3.52;;;;;;;-4.59;100.00;101831.09;1703656;82;21144;-62
2022/12/02 01:33:30;;;;;;;8.95;3.70;;;;;;;-4.59;100.00;101829.38;1702512;84;20959;-67
2022/12/02 01:35:58;;;;;;;9.65;3.27;;;;;;;-4.59;100.00;101826.83;1703724;82;22189;-62
2022/12/02 01:38:26;;;;;;;8.55;3.33;;;;;;;-4.58;100.00;101836.56;1703656;82;21524;-62
2022/12/02 01:40:53;;;;;;;7.80;3.65;;;;;;;-4.56;100.00;101820.83;1703738;82;21241;-63
2022/12/02 01:43:20;;;;;;;7.47;3.52;;;;;;;-4.56;100.00;101831.00;1702839;82;21556;-62
2022/12/02 01:45:47;;;;;;;8.35;3.77;;;;;;;-4.55;100.00;101837.75;1703033;82;21009;-62
2022/12/02 01:48:15;;;;;;;6.75;3.45;;;;;;;-4.55;100.00;101835.20;1703598;84;21574;-62
2022/12/02 01:50:43;;;;;;;9.13;3.85;;;;;;;-4.54;100.00;101837.72;1703625;82;21027;-63
2022/12/02 01:53:10;;;;;;;6.00;2.77;;;;;;;-4.52;100.00;101831.30;1702942;82;21120;-65
2022/12/02 01:55:37;;;;;;;7.17;3.08;;;;;;;-4.54;100.00;101831.36;1703539;82;22058;-63
2022/12/02 01:58:04;;;;;;;9.83;3.98;;;;;;;-4.54;100.00;101813.99;1703253;82;20958;-62
2022/12/02 02:00:33;;;;;;;7.12;3.08;;;;;;;-4.53;100.00;101833.02;1703445;82;21186;-62
2022/12/02 02:03:00;;;;;;;7.00;3.12;;;;;;;-4.53;100.00;101833.46;1702928;82;20903;-64
2022/12/02 02:05:30;;;;;;;6.65;3.25;;;;;;;-4.53;100.00;101830.91;1697045;84;21519;-62
2022/12/02 02:08:04;;;;;;;9.33;3.83;;;;;;;-4.55;100.00;101831.39;1703033;84;21488;-63
2022/12/02 02:10:31;;;;;;;7.25;2.95;;;;;;;-4.54;100.00;101848.34;1703256;84;21022;-62
2022/12/02 02:12:59;;;;;;;8.33;2.95;;;;;;;-4.55;100.00;101832.66;1703266;84;21030;-62
2022/12/02 02:15:26;;;;;;;9.73;3.52;;;;;;;-4.57;100.00;101827.63;1703495;82;21100;-62
2022/12/02 02:17:55;;;;;;;8.78;3.42;;;;;;;-4.57;100.00;101816.63;1702981;84;21220;-67
2022/12/02 02:20:24;;;;;;;6.90;3.15;;;;;;;-4.59;100.00;101815.83;1703556;84;21041;-62
2022/12/02 02:23:08;;;;;;;8.90;3.77;;;;;;;-4.61;100.00;101815.05;1703305;82;20919;-64
2022/12/02 02:25:45;;;;;;;9.33;3.62;;;;;;;-4.63;100.00;101824.44;1702968;82;20951;-67
2022/12/02 02:28:13;;;;;;;7.92;4.22;;;;;;;-4.65;100.00;101810.06;1703584;84;20975;-62
2022/12/02 02:30:40;;;;;;;7.87;3.40;;;;;;;-4.65;100.00;101812.60;1702880;82;21295;-62
2022/12/02 02:33:09;;;;;;;9.90;3.75;;;;;;;-4.66;100.00;101810.09;1703436;82;21021;-62
2022/12/02 02:35:37;;;;;;;7.87;3.45;;;;;;;-4.66;100.00;101811.36;1702934;82;21449;-62
2022/12/02 02:38:06;;;;;;;10.65;3.55;;;;;;;-4.68;100.00;101825.41;1675339;84;20990;-62
2022/12/02 02:40:33;;;;;;;7.95;3.22;;;;;;;-4.68;100.00;101810.14;1667294;85;21124;-66
2022/12/02 02:43:01;;;;;;;10.35;3.05;;;;;;;-4.67;100.00;101813.52;1667676;84;21226;-62
2022/12/02 02:45:34;;;;;;;6.78;3.55;;;;;;;-4.67;100.00;101817.33;1666959;84;21434;-62
2022/12/02 02:48:02;;;;;;;8.25;3.55;;;;;;;-4.68;100.00;101825.41;1667779;84;20964;-62
2022/12/02 02:50:30;;;;;;;8.33;4.08;;;;;;;-4.70;100.00;101810.65;1636741;85;21035;-64
2022/12/02 02:52:57;;;;;;;9.18;3.65;;;;;;;-4.68;100.00;101809.31;1666897;84;21024;-66
2022/12/02 02:55:26;;;;;;;11.33;3.05;;;;;;;-4.69;100.00;101814.85;1667415;84;22526;-62
2022/12/02 02:57:53;;;;;;;7.80;3.45;;;;;;;-4.69;100.00;101814.85;1667626;85;21017;-62
2022/12/02 03:00:22;;;;;;;12.07;3.87;;;;;;;-4.68;100.00;101813.13;1667618;85;21107;-62
2022/12/02 03:02:52;;;;;;;9.08;3.02;;;;;;;-4.69;100.00;101826.30;1667110;85;20969;-66
2022/12/02 03:05:20;;;;;;;8.63;4.12;;;;;;;-4.70;100.00;101819.55;1666201;85;22490;-62
2022/12/02 03:07:50;;;;;;;11.10;4.40;;;;;;;-4.71;100.00;101803.88;1665231;86;21256;-62
2022/12/02 03:10:17;;;;;;;8.63;3.67;;;;;;;-4.71;100.00;101817.87;1665138;86;21000;-62
2022/12/02 03:12:45;;;;;;;8.73;3.50;;;;;;;-4.71;100.00;101819.14;1665579;86;21582;-66
2022/12/02 03:15:13;;;;;;;6.28;3.10;;;;;;;-4.71;100.00;101816.59;1664165;86;21088;-62
2022/12/02 03:17:40;;;;;;;6.40;3.27;;;;;;;-4.71;100.00;101828.05;1665433;86;21091;-63
2022/12/02 03:20:08;;;;;;;6.40;3.25;;;;;;;-4.74;100.00;101835.76;1665338;86;21404;-63
2022/12/02 03:22:36;;;;;;;6.62;2.95;;;;;;;-4.75;100.00;101825.64;1665468;85;20941;-62
2022/12/02 03:25:04;;;;;;;8.73;3.00;;;;;;;-4.75;100.00;101830.73;1664254;86;21509;-66
2022/12/02 03:27:31;;;;;;;7.03;3.22;;;;;;;-4.76;100.00;101831.17;1639028;86;21106;-62
2022/12/02 03:29:59;;;;;;;7.95;4.10;;;;;;;-4.76;100.00;101848.16;1665659;86;21645;-65
2022/12/02 03:32:26;;;;;;;7.90;3.77;;;;;;;-4.78;100.00;101824.02;1665561;86;21285;-63
2022/12/02 03:34:53;;;;;;;8.40;4.03;;;;;;;-4.78;100.00;101829.55;1664968;86;21027;-66
2022/12/02 03:37:22;;;;;;;7.45;3.30;;;;;;;-4.79;100.00;101839.33;1665068;86;21079;-62
2022/12/02 03:39:49;;;;;;;7.55;3.40;;;;;;;-4.80;100.00;101824.95;1665424;86;21060;-62
2022/12/02 03:42:18;;;;;;;7.22;2.70;;;;;;;-4.81;100.00;101845.75;1665697;86;21040;-62
2022/12/02 03:44:45;;;;;;;6.65;3.35;;;;;;;-4.81;100.00;101839.80;1665541;86;22427;-62
2022/12/02 03:47:12;;;;;;;7.17;3.08;;;;;;;-4.84;100.00;101832.29;1663856;86;21008;-64
2022/12/02 03:49:39;;;;;;;7.05;2.60;;;;;;;-4.85;100.00;101844.59;1665493;86;21246;-61
2022/12/02 03:52:08;;;;;;;6.17;2.45;;;;;;;-4.85;100.00;101845.86;1665478;86;20969;-62
2022/12/02 03:54:35;;;;;;;6.53;2.52;;;;;;;-4.86;100.00;101855.20;1665284;86;21116;-62
2022/12/02 03:57:05;;;;;;;9.38;3.58;;;;;;;-4.88;100.00;101848.08;1664704;85;22742;-62
2022/12/02 03:59:32;;;;;;;5.70;3.08;;;;;;;-4.89;100.00;101840.03;1664814;86;21564;-62
2022/12/02 04:01:59;;;;;;;10.08;3.62;;;;;;;-4.91;100.00;101849.44;1665260;86;21383;-62
2022/12/02 04:04:27;;;;;;;7.95;3.50;;;;;;;-4.92;100.00;101846.06;1665566;86;21502;-66
2022/12/02 04:06:54;;;;;;;8.30;3.15;;;;;;;-4.92;100.00;101857.95;1670448;85;21012;-62
2022/12/02 04:09:21;;;;;;;6.97;3.02;;;;;;;-4.93;100.00;101841.83;1670654;85;21426;-66
2022/12/02 04:11:49;;;;;;;8.70;3.37;;;;;;;-4.94;100.00;101836.36;1670573;85;21854;-61
2022/12/02 04:14:17;;;;;;;6.97;3.15;;;;;;;-4.93;100.00;101827.02;1670825;85;20957;-62
2022/12/02 04:16:44;;;;;;;6.25;2.98;;;;;;;-4.94;100.00;101833.81;1670846;85;20956;-67
2022/12/02 04:19:14;;;;;;;7.58;3.55;;;;;;;-4.95;100.00;101829.61;1670601;85;21862;-62
2022/12/02 04:21:41;;;;;;;7.03;3.45;;;;;;;-4.95;100.00;101832.60;1670556;85;21249;-62
2022/12/02 04:24:10;;;;;;;7.17;3.02;;;;;;;-4.95;100.00;101840.23;1670857;85;21107;-62
2022/12/02 04:26:38;;;;;;;7.87;3.58;;;;;;;-4.96;100.00;101837.30;1670372;85;21507;-63
2022/12/02 04:29:06;;;;;;;8.63;3.50;;;;;;;-4.96;100.00;101844.48;1671031;85;21592;-63
2022/12/02 04:31:34;;;;;;;6.25;3.15;;;;;;;-4.94;100.00;101840.17;1670264;85;21066;-63
2022/12/02 04:34:02;;;;;;;6.60;2.98;;;;;;;-4.93;100.00;101828.28;1670886;85;21270;-63
2022/12/02 04:36:29;;;;;;;7.00;3.52;;;;;;;-4.92;100.00;101834.62;1670206;85;21494;-63
2022/12/02 04:38:56;;;;;;;8.38;3.30;;;;;;;-4.92;100.00;101837.61;1671073;85;21115;-62
2022/12/02 04:41:24;;;;;;;7.40;2.70;;;;;;;-4.93;100.00;101846.92;1670366;85;21082;-64
2022/12/02 04:43:51;;;;;;;7.72;2.98;;;;;;;-4.93;100.00;101832.92;1671105;85;22446;-63
2022/12/02 04:46:18;;;;;;;7.05;3.50;;;;;;;-4.91;100.00;101826.55;1670254;85;21341;-63
2022/12/02 04:48:45;;;;;;;9.00;3.08;;;;;;;-4.90;100.00;101833.28;1670846;85;21097;-63
2022/12/02 04:51:12;;;;;;;7.20;2.87;;;;;;;-4.90;100.00;101830.74;1670114;85;21044;-62
2022/12/02 04:53:40;;;;;;;8.58;3.58;;;;;;;-4.89;100.00;101841.30;1670961;85;21074;-64
2022/12/02 04:56:07;;;;;;;8.38;3.60;;;;;;;-4.90;100.00;101838.38;1670336;85;21008;-65
2022/12/02 04:58:35;;;;;;;7.40;3.08;;;;;;;-4.90;100.00;101853.63;1670949;85;22396;-65
2022/12/02 05:01:02;;;;;;;7.17;3.40;;;;;;;-4.92;100.00;101846.50;1670464;85;20964;-70
2022/12/02 05:03:29;;;;;;;9.65;4.00;;;;;;;-4.93;100.00;101842.27;1670933;85;21058;-64
2022/12/02 05:05:56;;;;;;;8.30;3.75;;;;;;;-4.93;100.00;101856.26;1669201;84;21077;-66
2022/12/02 05:08:24;;;;;;;10.60;4.72;;;;;;;-4.93;100.00;101839.73;1667564;84;21091;-62
2022/12/02 05:10:51;;;;;;;9.03;4.00;;;;;;;-4.93;100.00;101860.08;1667741;85;21312;-62
2022/12/02 05:13:18;;;;;;;8.68;3.55;;;;;;;-4.93;100.00;101868.53;1667015;85;20973;-62
2022/12/02 05:15:46;;;;;;;8.98;3.40;;;;;;;-4.91;100.00;101872.33;1667570;84;22385;-62
2022/12/02 05:18:13;;;;;;;6.45;3.15;;;;;;;-4.87;100.00;101861.18;1667327;84;21084;-67
2022/12/02 05:20:41;;;;;;;7.62;3.40;;;;;;;-4.82;100.00;101852.97;1667882;84;22490;-63
2022/12/02 05:23:08;;;;;;;7.12;3.00;;;;;;;-4.82;100.00;101860.59;1667424;84;22097;-62
2022/12/02 05:25:35;;;;;;;6.83;3.42;;;;;;;-4.84;100.00;101864.91;1667640;85;21632;-64
2022/12/02 05:28:02;;;;;;;7.12;3.17;;;;;;;-4.84;100.00;101871.72;1667528;84;21625;-68
2022/12/02 05:30:30;;;;;;;7.12;3.25;;;;;;;-4.85;100.00;101855.59;1667350;85;20917;-63
2022/12/02 05:32:57;;;;;;;7.50;3.30;;;;;;;-4.84;100.00;101865.36;1667706;84;21505;-64
2022/12/02 05:35:24;;;;;;;6.92;3.20;;;;;;;-4.84;100.00;101868.73;1667241;85;21280;-63
2022/12/02 05:37:51;;;;;;;7.92;3.22;;;;;;;-4.82;100.00;101853.41;1667872;84;21498;-63
2022/12/02 05:40:20;;;;;;;8.95;3.87;;;;;;;-4.80;100.00;101841.05;1667030;84;21554;-64
2022/12/02 05:42:47;;;;;;;8.38;3.45;;;;;;;-4.78;100.00;101848.62;1667618;84;21816;-63
2022/12/02 05:45:19;;;;;;;8.68;3.90;;;;;;;-4.75;100.00;101868.89;1667050;85;21080;-64
2022/12/02 05:47:54;;;;;;;9.10;4.05;;;;;;;-4.74;100.00;101860.37;1668052;85;21183;-63
2022/12/02 05:50:21;;;;;;;10.98;4.92;;;;;;;-4.72;100.00;101852.27;1667548;84;21118;-63
2022/12/02 05:52:50;;;;;;;9.68;4.30;;;;;;;-4.70;100.00;101862.80;1666953;84;21000;-63
2022/12/02 05:55:19;;;;;;;11.63;5.53;;;;;;;-4.68;100.00;101872.48;1667196;84;20967;-64
2022/12/02 05:57:46;;;;;;;11.53;4.30;;;;;;;-4.67;100.00;101870.32;1668187;84;21636;-67
2022/12/02 06:00:20;;;;;;;8.35;3.60;;;;;;;-4.65;100.00;101871.56;1666192;84;21240;-64
2022/12/02 06:02:55;;;;;;;13.38;4.37;;;;;;;-4.63;100.00;101861.33;1667529;84;21059;-64
2022/12/02 06:05:28;;;;;;;9.75;4.45;;;;;;;-4.61;100.00;101862.12;1667551;85;21142;-64
2022/12/02 06:07:59;;;;;;;8.53;3.55;;;;;;;-4.57;100.00;101872.61;1663504;85;21506;-64
2022/12/02 06:10:29;;;;;;;7.40;3.22;;;;;;;-4.53;100.00;101864.00;1662095;85;22342;-63
2022/12/02 06:12:59;;;;;;;10.45;4.17;;;;;;;-4.51;100.00;101860.53;1664831;85;21229;-64
2022/12/02 06:15:31;;;;;;;7.70;3.30;;;;;;;-4.49;100.00;101856.22;1662536;85;21580;-63
2022/12/02 06:17:58;;;;;;;9.38;3.65;;;;;;;-4.46;100.00;101868.03;1664251;85;21644;-64
2022/12/02 06:20:29;;;;;;;10.10;4.10;;;;;;;-4.42;100.00;101851.77;1664396;85;21043;-63
2022/12/02 06:22:56;;;;;;;7.85;3.55;;;;;;;-4.37;100.00;101845.27;1664535;84;21113;-63
2022/12/02 06:25:28;;;;;;;9.23;3.27;;;;;;;-4.35;100.00;101845.62;1663420;85;21279;-64
2022/12/02 06:28:01;;;;;;;8.75;3.70;;;;;;;-4.29;100.00;101859.85;1665078;85;21043;-64
2022/12/02 06:30:28;;;;;;;7.62;4.00;;;;;;;-4.27;100.00;101838.56;1662158;85;21000;-63
2022/12/02 06:32:57;;;;;;;10.30;4.05;;;;;;;-4.23;100.00;101861.77;1665021;85;21032;-63
2022/12/02 06:35:28;;;;;;;7.62;3.80;;;;;;;-4.19;100.00;101862.51;1661153;85;21536;-66
2022/12/02 06:37:58;;;;;;;;;;;;;;;-4.14;100.00;101850.89;1666537;85;21646;-66
2022/12/02 06:40:30;;;;;;;8.80;3.60;;;;;;;-4.12;100.00;101860.16;1661249;84;20259;-62
2022/12/02 06:42:59;;;;;;;8.15;3.62;;;;;;;-4.07;100.00;101853.20;1637938;85;21027;-65
2022/12/02 06:45:29;;;;;;;8.53;4.10;;;;;;;-4.02;100.00;101869.14;1664111;84;21026;-66
2022/12/02 06:48:26;;;;;;;10.15;3.67;;;;;;;-3.99;100.00;101841.03;1671797;84;21098;-62
2022/12/02 06:50:54;;;;;;;9.23;3.72;;;;;;;-3.94;100.00;101854.89;1662769;86;21236;-62
2022/12/02 06:53:34;;;;;;;9.40;4.15;;;;;;;-3.88;100.00;101857.69;1658776;86;21253;-65
2022/12/02 06:56:12;;;;;;;10.50;3.92;;;;;;;-3.87;100.00;101846.16;1660319;85;21019;-63
2022/12/02 06:58:43;;;;;;;9.03;3.83;;;;;;;-3.80;100.00;101860.81;1658836;85;20987;-63
2022/12/02 07:01:31;;;;;;;8.10;3.40;;;;;;;-3.74;100.00;101847.88;1659700;86;21441;-68
2022/12/02 07:04:11;;;;;;;9.18;4.10;;;;;;;-3.64;100.00;101854.75;1662323;86;21249;-66
2022/12/02 07:06:46;;;;;;;15.13;3.10;;;;;;;-3.58;100.00;101852.83;1663889;85;24940;-65
2022/12/02 07:09:19;;;;;;;7.95;3.60;;;;;;;-3.52;100.00;101886.21;1663168;86;21110;-65
2022/12/02 07:11:54;;;;;;;8.45;3.70;;;;;;;-3.53;100.00;101847.12;1664017;86;20980;-66
2022/12/02 07:14:39;;;;;;;9.30;3.77;;;;;;;-3.50;100.00;101853.84;1663955;86;21081;-66
2022/12/02 07:17:28;;;;;;;5.80;2.83;;;;;;;-3.47;100.00;101856.28;1663905;86;21252;-66
2022/12/02 07:20:10;;;;;;;10.30;3.80;;;;;;;-3.42;100.00;101852.67;1681761;84;20963;-65
2022/12/02 07:22:44;;;;;;;7.85;3.50;;;;;;;-3.35;98.78;101866.05;1673676;84;21142;-64
2022/12/02 07:25:31;;;;;;;6.67;3.12;;;;;;;-3.25;97.49;101857.19;1695650;84;21018;-65
2022/12/02 07:27:58;;;;;;;9.95;4.25;;;;;;;-3.10;94.37;101844.78;1695580;84;22424;-66
2022/12/02 07:30:32;;;;;;;7.22;3.20;;;;;;;-2.84;90.16;101873.13;1675571;84;21257;-64
2022/12/02 07:32:59;;;;;;;6.53;2.95;;;;;;;-2.61;84.94;101865.47;1665211;85;21002;-65
2022/12/02 07:35:26;;;;;;;9.53;3.35;;;;;;;-2.54;79.74;101856.69;1665059;85;20963;-67
2022/12/02 07:37:54;;;;;;;6.35;2.65;;;;;;;-2.53;76.87;101854.95;1664383;86;20964;-67
2022/12/02 07:40:23;;;;;;;7.85;3.08;;;;;;;-2.55;75.47;101838.41;1665299;85;21215;-64
2022/12/02 07:42:50;;;;;;;8.05;3.00;;;;;;;-2.51;72.10;101869.75;1665283;85;21275;-65
2022/12/02 07:45:18;;;;;;;7.03;2.75;;;;;;;-2.40;70.99;101857.85;1675759;84;20903;-64
2022/12/02 07:47:45;;;;;;;6.50;3.02;;;;;;;-2.10;70.13;101863.47;1695659;84;22225;-66
2022/12/02 07:50:14;;;;;;;9.03;3.80;;;;;;;-1.73;67.75;101845.72;1695891;84;20986;-64
2022/12/02 07:52:42;;;;;;;9.25;4.08;;;;;;;-1.36;64.32;101858.67;1694040;84;21003;-64
2022/12/02 07:55:11;;;;;;;7.60;2.87;;;;;;;-1.18;61.59;101844.22;1662036;86;21196;-64
2022/12/02 07:57:40;;;;;;;10.18;4.22;;;;;;;-1.17;59.00;101872.77;1662196;86;20903;-64
2022/12/02 08:00:08;;;;;;;9.85;3.70;;;;;;;-1.28;57.69;101857.88;1660622;85;21005;-65
2022/12/02 08:02:41;;;;;;;6.42;3.62;;;;;;;-1.33;57.15;101847.00;1660351;86;21071;-65
2022/12/02 08:05:10;;;;;;;8.63;3.87;;;;;;;-1.31;56.67;101840.93;1656509;84;21481;-67
2022/12/02 08:07:38;;;;;;;10.60;4.00;;;;;;;-1.30;56.06;101832.34;1666884;84;21166;-66
2022/12/02 08:10:06;;;;;;;7.83;3.42;;;;;;;-1.35;56.20;101841.97;1666938;84;21092;-66
2022/12/02 08:12:33;;;;;;;7.40;3.25;;;;;;;-1.41;55.99;101828.16;1666516;84;21106;-66
2022/12/02 08:15:01;;;;;;;8.00;3.45;;;;;;;-1.50;55.85;101841.35;1666369;86;21478;-66
2022/12/02 08:17:29;;;;;;;7.28;3.02;;;;;;;-1.60;56.37;101841.36;1666224;86;21489;-66
2022/12/02 08:19:56;;;;;;;7.15;3.40;;;;;;;-1.65;56.38;101828.77;1668064;85;21607;-65
2022/12/02 08:22:24;;;;;;;7.65;3.70;;;;;;;-1.59;56.43;101814.88;1666625;84;21206;-66
2022/12/02 08:24:52;;;;;;;6.72;3.77;;;;;;;-1.38;56.50;101820.34;1666842;86;21021;-65
2022/12/02 08:27:19;;;;;;;9.38;3.90;;;;;;;-1.02;56.31;101817.06;1668182;85;20983;-67
2022/12/02 08:29:48;;;;;;;10.35;3.98;;;;;;;-0.65;55.64;101815.33;1666206;86;21584;-65
2022/12/02 08:32:18;;;;;;;8.80;3.87;;;;;;;-0.34;54.35;101818.11;1668901;85;21784;-65
2022/12/02 08:34:46;;;;;;;8.88;3.72;;;;;;;-0.10;53.05;101821.20;1666794;84;20971;-65
2022/12/02 08:37:14;;;;;;;6.83;3.40;;;;;;;0.06;52.30;101804.59;1669080;85;20955;-67
2022/12/02 08:39:41;;;;;;;7.03;3.33;;;;;;;0.26;51.46;101805.32;1666371;84;20955;-66
2022/12/02 08:42:09;;;;;;;7.15;3.62;;;;;;;0.36;50.39;101803.95;1670615;85;21131;-65
2022/12/02 08:44:36;;;;;;;6.70;3.50;;;;;;;0.40;50.44;101799.86;1639699;86;21306;-65
2022/12/02 08:47:03;;;;;;;6.28;2.95;;;;;;;0.58;50.10;101793.41;1674544;84;20988;-66
2022/12/02 08:49:30;;;;;;;8.60;3.05;;;;;;;0.70;49.65;101789.73;1639498;86;21094;-68
2022/12/02 08:51:58;;;;;;;6.45;3.25;;;;;;;0.73;49.23;101787.47;1674016;84;21015;-66
2022/12/02 08:54:26;;;;;;;5.92;2.52;;;;;;;0.77;48.90;101791.98;1639740;87;21095;-66
2022/12/02 08:56:55;;;;;;;5.80;3.02;;;;;;;0.77;48.63;101802.25;1674559;84;21106;-65
2022/12/02 08:59:22;;;;;;;5.78;2.87;;;;;;;0.79;48.42;101781.98;1639802;86;21007;-67
2022/12/02 09:01:50;;;;;;;7.72;3.60;;;;;;;0.76;48.41;101791.59;1673563;84;21080;-65
2022/12/02 09:04:17;;;;;;;11.05;4.10;;;;;;;0.63;48.05;101770.89;1639728;87;21118;-64
2022/12/02 09:06:44;;;;;;;5.62;2.67;;;;;;;0.52;48.44;101766.78;1674559;84;21534;-64
2022/12/02 09:09:12;;;;;;;6.62;3.02;;;;;;;0.49;48.48;101766.47;1639629;87;22563;-64
2022/12/02 09:11:39;;;;;;;7.20;3.70;;;;;;;0.47;48.60;101783.70;1673923;85;20869;-66
2022/12/02 09:14:06;;;;;;;6.22;2.95;;;;;;;0.42;48.63;101778.81;1639667;86;21182;-64
2022/12/02 09:16:35;;;;;;;7.37;3.45;;;;;;;0.38;48.83;101756.80;1674111;84;21095;-64
2022/12/02 09:19:03;;;;;;;8.43;3.87;;;;;;;0.38;49.01;101768.77;1639860;87;21105;-65
2022/12/02 09:21:30;;;;;;;7.08;3.05;;;;;;;0.42;49.33;101784.41;1674673;84;21240;-66
2022/12/02 09:23:58;;;;;;;9.30;3.60;;;;;;;0.47;49.08;101775.55;1639024;87;20985;-64
2022/12/02 09:26:25;;;;;;;6.35;2.85;;;;;;;0.44;48.75;101764.62;1674448;85;21028;-63
2022/12/02 09:28:53;;;;;;;9.05;2.83;;;;;;;0.35;48.99;101759.98;1639502;86;21044;-64
2022/12/02 09:31:21;;;;;;;8.23;2.87;;;;;;;0.33;49.71;101764.34;1674511;85;21036;-67
2022/12/02 09:33:48;;;;;;;6.60;2.70;;;;;;;0.46;49.61;101762.36;1638841;86;21300;-64
2022/12/02 09:36:15;;;;;;;6.78;3.05;;;;;;;0.53;49.31;101770.56;1674472;84;21034;-65
2022/12/02 09:38:43;;;;;;;5.47;2.80;;;;;;;0.50;49.33;101759.17;1639549;87;21091;-63
2022/12/02 09:41:10;;;;;;;5.83;2.67;;;;;;;0.48;49.36;101755.39;1674568;84;21012;-67
2022/12/02 09:43:37;;;;;;;7.25;3.35;;;;;;;0.47;49.47;101776.83;1638675;86;20977;-68
2022/12/02 09:46:05;;;;;;;5.75;2.58;;;;;;;0.46;49.70;101758.97;1674741;85;22541;-65
2022/12/02 09:48:32;;;;;;;7.10;2.90;;;;;;;0.49;49.57;101767.76;1639764;87;20942;-64
2022/12/02 09:51:00;;;;;;;6.95;2.87;;;;;;;0.42;49.85;101750.60;1674594;85;21027;-67
2022/12/02 09:53:36;;;;;;;6.53;2.72;;;;;;;0.38;50.04;101752.10;1639768;86;21093;-66
2022/12/02 09:56:05;;;;;;;8.70;2.77;;;;;;;0.36;50.49;101750.09;1678668;82;21092;-65
2022/12/02 09:58:32;;;;;;;5.80;2.62;;;;;;;0.38;50.41;101767.48;1685358;84;21257;-65
2022/12/02 10:01:00;;;;;;;5.87;2.50;;;;;;;0.34;50.33;101736.07;1682923;84;21493;-65
2022/12/02 10:03:27;;;;;;;6.35;2.50;;;;;;;0.31;50.61;101752.90;1682755;84;21520;-70
2022/12/02 10:05:55;;;;;;;7.72;3.25;;;;;;;0.35;51.19;101752.28;1683880;84;21590;-66
2022/12/02 10:08:26;;;;;;;6.30;3.10;;;;;;;0.42;50.90;101754.91;1687178;84;21137;-64
2022/12/02 10:10:55;;;;;;;5.65;2.52;;;;;;;0.44;50.91;101738.50;1688669;84;21257;-64
2022/12/02 10:13:23;;;;;;;5.45;2.60;;;;;;;0.44;50.78;101734.66;1689967;84;21101;-65
2022/12/02 10:15:51;;;;;;;5.72;2.85;;;;;;;0.43;50.80;101752.70;1689068;84;21089;-70
2022/12/02 10:18:27;;;;;;;7.35;3.20;;;;;;;0.35;50.94;101735.61;1682120;84;21101;-64
2022/12/02 10:20:54;;;;;;;7.12;2.77;;;;;;;0.22;51.65;101731.56;1685507;84;21556;-64
2022/12/02 10:23:24;;;;;;;8.98;2.70;;;;;;;0.09;52.31;101744.66;1684334;84;22325;-68
2022/12/02 10:26:08;;;;;;;6.40;2.52;;;;;;;-0.02;53.05;101735.77;1668439;85;21105;-65
2022/12/02 10:28:36;;;;;;;5.47;2.60;;;;;;;-0.08;53.39;101738.63;1670262;84;20970;-63
2022/12/02 10:31:21;;;;;;;7.12;3.00;;;;;;;-0.09;54.52;101732.31;1667830;85;20979;-71
2022/12/02 10:34:00;;;;;;;5.83;2.75;;;;;;;-0.08;55.37;101738.63;1647854;87;21474;-67
2022/12/02 10:36:33;;;;;;;6.95;2.62;;;;;;;-0.08;55.78;101722.43;1664948;85;21292;-65
2022/12/02 10:39:33;;;;;;;5.90;2.80;;;;;;;-0.07;56.48;101730.06;1672721;84;21093;-68
2022/12/02 10:42:08;;;;;;;5.25;2.83;;;;;;;-0.04;56.73;101754.69;1668586;85;21085;-64
2022/12/02 10:44:38;;;;;;;5.35;2.50;;;;;;;0.00;56.70;101722.89;1673034;85;20963;-65
2022/12/02 10:47:23;;;;;;;5.50;2.50;;;;;;;0.02;57.01;101735.16;1675681;85;21082;-64
2022/12/02 10:49:55;;;;;;;8.58;3.02;;;;;;;0.05;57.39;101717.06;1673641;84;22246;-70
2022/12/02 10:52:27;;;;;;;6.72;3.25;;;;;;;0.07;57.59;101716.52;1676025;84;21351;-63
2022/12/02 10:54:54;;;;;;;6.95;2.58;;;;;;;0.11;58.00;101750.05;1675129;85;20923;-66
2022/12/02 10:57:28;;;;;;;5.97;2.00;;;;;;;0.15;57.51;101737.48;1675230;85;21501;-66
2022/12/02 10:59:57;;;;;;;10.65;3.27;;;;;;;0.18;57.75;101731.34;1673740;85;20970;-67
2022/12/02 11:04:16;;;;;;;5.27;2.87;;;;;;;0.29;57.71;101712.84;1878916;75;22524;-68
2022/12/02 11:06:43;;;;;;;5.40;2.58;;;;;;;0.32;57.20;101719.92;1829897;77;21057;-64
2022/12/02 13:48:48;;;;;;;6.63;2.67;;;;;;;-0.64;100.00;101756.84;1765925;80;23464;-65
2022/12/02 13:51:15;;;;;;;5.72;2.40;;;;;;;-0.63;100.00;101762.33;1755337;81;21527;-67
2022/12/02 13:53:43;;;;;;;6.05;2.70;;;;;;;-0.62;100.00;101747.33;1724801;83;21367;-65
2022/12/02 13:56:10;;;;;;;5.85;2.60;;;;;;;-0.65;100.00;101752.59;1724709;83;20931;-64
2022/12/02 13:58:37;;;;;;;7.37;2.95;;;;;;;-0.71;100.00;101768.27;1725262;83;20939;-65
2022/12/02 14:01:06;;;;;;;6.08;2.98;;;;;;;-0.78;100.00;101759.59;1724768;83;20912;-66
2022/12/02 14:03:33;;;;;;;6.78;3.62;;;;;;;-0.81;100.00;101758.91;1724001;83;20996;-66
2022/12/02 14:06:00;;;;;;;5.95;2.90;;;;;;;-0.88;100.00;101759.64;1725301;83;21298;-64
2022/12/02 14:08:28;;;;;;;6.60;3.42;;;;;;;-0.94;100.00;101763.78;1725084;83;21938;-65
2022/12/02 14:10:57;;;;;;;9.43;3.87;;;;;;;-0.98;100.00;101767.39;1724933;83;20888;-65
2022/12/02 14:13:24;;;;;;;7.87;4.12;;;;;;;-1.02;100.00;101770.54;1723950;83;20982;-67
2022/12/02 14:15:52;;;;;;;5.65;3.12;;;;;;;-1.02;100.00;101773.09;1725174;83;21066;-64